createdAt,value
2018-07-03T00:02:11.640Z,20.56
2018-07-03T00:04:42.754Z,20.54
2018-07-03T00:07:13.315Z,20.52
2018-07-03T00:09:43.286Z,20.51
2018-07-03T00:12:13.600Z,20.47
2018-07-03T00:14:44.280Z,20.44
2018-07-03T00:17:17.495Z,20.40
2018-07-03T00:19:51.001Z,20.37
2018-07-03T00:22:24.545Z,20.35
2018-07-03T00:24:55.042Z,20.32
2018-07-03T00:27:25.101Z,20.32
2018-07-03T00:29:55.100Z,20.29
2018-07-03T00:32:28.186Z,20.25
2018-07-03T00:34:58.850Z,20.22
2018-07-03T00:37:29.100Z,20.20
2018-07-03T00:39:59.548Z,20.19
2018-07-03T00:42:29.600Z,20.16
2018-07-03T00:44:59.985Z,20.14
2018-07-03T00:47:30.324Z,20.11
2018-07-03T00:50:00.536Z,20.08
2018-07-03T00:52:30.673Z,20.05
2018-07-03T00:55:00.568Z,20.02
2018-07-03T00:57:30.907Z,20.00
2018-07-03T01:00:12.142Z,19.95
2018-07-03T01:02:41.950Z,19.92
2018-07-03T01:05:12.626Z,19.89
2018-07-03T01:07:42.794Z,19.86
2018-07-03T01:10:13.052Z,19.84
2018-07-03T01:12:43.967Z,19.81
2018-07-03T01:15:14.182Z,19.80
2018-07-03T01:17:44.233Z,19.77
2018-07-03T01:20:14.125Z,19.75
2018-07-03T01:22:44.280Z,19.73
2018-07-03T01:25:14.194Z,19.71
2018-07-03T01:27:44.827Z,19.68
2018-07-03T01:30:15.054Z,19.66
2018-07-03T01:32:45.276Z,19.64
2018-07-03T01:35:15.395Z,19.63
2018-07-03T01:37:45.840Z,19.61
2018-07-03T01:40:16.136Z,19.58
2018-07-03T01:42:46.446Z,19.54
2018-07-03T01:45:16.699Z,19.51
2018-07-03T01:47:46.736Z,19.50
2018-07-03T01:50:19.398Z,19.48
2018-07-03T01:52:50.047Z,19.43
2018-07-03T01:55:20.403Z,19.37
2018-07-03T01:57:53.524Z,19.34
2018-07-03T02:00:23.964Z,19.30
2018-07-03T02:02:54.273Z,19.26
2018-07-03T02:05:24.839Z,19.23
2018-07-03T02:07:55.662Z,19.21
2018-07-03T02:10:26.362Z,19.19
2018-07-03T02:12:57.081Z,19.15
2018-07-03T02:15:27.774Z,19.11
2018-07-03T02:17:58.438Z,19.08
2018-07-03T02:20:29.212Z,19.04
2018-07-03T02:22:59.637Z,19.04
2018-07-03T02:25:30.367Z,19.03
2018-07-03T02:28:00.550Z,19.02
2018-07-03T02:30:31.393Z,19.02
2018-07-03T02:33:01.421Z,19.02
2018-07-03T02:35:32.425Z,19.02
2018-07-03T02:38:02.855Z,19.00
2018-07-03T02:40:33.282Z,18.99
2018-07-03T02:43:03.904Z,18.99
2018-07-03T02:45:34.343Z,18.98
2018-07-03T02:48:04.802Z,18.94
2018-07-03T02:50:34.871Z,18.91
2018-07-03T02:53:05.055Z,18.88
2018-07-03T02:55:35.426Z,18.86
2018-07-03T02:58:05.701Z,18.82
2018-07-03T03:00:35.951Z,18.79
2018-07-03T03:03:06.026Z,18.75
2018-07-03T03:05:36.339Z,18.73
2018-07-03T03:08:06.551Z,18.71
2018-07-03T03:10:36.736Z,18.71
2018-07-03T03:13:06.977Z,18.72
2018-07-03T03:15:37.524Z,18.70
2018-07-03T03:20:44.040Z,18.64
2018-07-03T03:23:14.121Z,18.59
2018-07-03T03:25:44.241Z,18.55
2018-07-03T03:28:14.900Z,18.54
2018-07-03T03:30:45.147Z,18.55
2018-07-03T03:33:15.243Z,18.57
2018-07-03T03:35:45.260Z,18.59
2018-07-03T03:38:15.154Z,18.59
2018-07-03T03:40:45.319Z,18.62
2018-07-03T03:43:15.487Z,18.64
2018-07-03T03:45:45.643Z,18.67
2018-07-03T03:48:15.760Z,18.70
2018-07-03T03:50:46.751Z,18.70
2018-07-03T03:53:17.055Z,18.69
2018-07-03T03:55:47.447Z,18.71
2018-07-03T03:58:17.675Z,18.74
2018-07-03T04:00:48.692Z,18.78
2018-07-03T04:03:18.734Z,18.83
2018-07-03T04:06:08.877Z,18.89
2018-07-03T04:08:39.666Z,18.95
2018-07-03T04:11:15.231Z,19.00
2018-07-03T04:13:45.309Z,19.06
2018-07-03T04:16:15.303Z,19.10
2018-07-03T04:18:45.521Z,19.16
2018-07-03T04:21:15.559Z,19.23
2018-07-03T04:23:45.866Z,19.30
2018-07-03T04:26:15.933Z,19.39
2018-07-03T04:28:46.086Z,19.43
2018-07-03T04:31:16.175Z,19.49
2018-07-03T04:33:46.423Z,19.55
2018-07-03T04:36:16.610Z,19.58
2018-07-03T04:38:46.822Z,19.65
2018-07-03T04:41:16.975Z,19.70
2018-07-03T04:43:48.048Z,19.76
2018-07-03T04:46:17.974Z,19.81
2018-07-03T04:48:47.985Z,19.86
2018-07-03T04:51:18.104Z,19.91
2018-07-03T04:53:48.213Z,19.98
2018-07-03T04:56:18.262Z,20.03
2018-07-03T04:58:49.079Z,20.07
2018-07-03T05:01:19.515Z,20.11
2018-07-03T05:03:49.899Z,20.18
2018-07-03T05:06:19.854Z,20.23
2018-07-03T05:08:50.302Z,20.23
2018-07-03T05:11:20.355Z,20.18
2018-07-03T05:13:50.635Z,20.14
2018-07-03T05:16:21.093Z,20.18
2018-07-03T05:18:51.257Z,20.24
2018-07-03T05:21:21.649Z,20.31
2018-07-03T05:23:51.737Z,20.39
2018-07-03T05:26:21.975Z,20.48
2018-07-03T05:28:52.471Z,20.56
2018-07-03T05:31:22.659Z,20.60
2018-07-03T05:33:53.271Z,20.67
2018-07-03T05:36:23.668Z,20.75
2018-07-03T05:38:53.668Z,20.79
2018-07-03T05:41:24.114Z,20.87
2018-07-03T05:43:54.623Z,20.93
2018-07-03T05:46:24.794Z,21.01
2018-07-03T05:48:55.148Z,21.07
2018-07-03T05:51:25.618Z,21.13
2018-07-03T05:53:56.051Z,21.50
2018-07-03T05:56:26.483Z,21.50
2018-07-03T05:58:56.613Z,21.54
2018-07-03T06:01:27.114Z,21.58
2018-07-03T06:03:57.637Z,21.61
2018-07-03T06:06:27.809Z,21.63
2018-07-03T06:08:58.164Z,21.68
2018-07-03T06:11:28.515Z,21.71
2018-07-03T06:13:58.663Z,21.78
2018-07-03T06:16:29.436Z,21.80
2018-07-03T06:18:59.832Z,21.86
2018-07-03T06:21:34.618Z,21.91
2018-07-03T06:24:05.219Z,21.91
2018-07-03T06:26:35.994Z,21.87
2018-07-03T06:29:06.297Z,21.86
2018-07-03T06:31:36.719Z,21.87
2018-07-03T06:34:07.012Z,21.88
2018-07-03T06:36:37.376Z,21.93
2018-07-03T06:39:12.027Z,21.94
2018-07-03T06:41:42.360Z,21.97
2018-07-03T06:44:12.715Z,22.00
2018-07-03T06:46:43.175Z,22.00
2018-07-03T06:49:13.472Z,22.04
2018-07-03T06:51:43.641Z,22.07
2018-07-03T06:54:14.149Z,22.14
2018-07-03T06:56:44.451Z,22.17
2018-07-03T06:59:14.667Z,22.15
2018-07-03T07:01:45.037Z,22.15
2018-07-03T07:04:15.392Z,22.17
2018-07-03T07:06:45.380Z,22.23
2018-07-03T07:09:15.285Z,22.28
2018-07-03T07:11:46.088Z,22.34
2018-07-03T07:14:16.343Z,22.40
2018-07-03T07:16:46.239Z,22.44
2018-07-03T07:19:16.473Z,22.48
2018-07-03T07:21:46.652Z,22.52
2018-07-03T07:24:17.078Z,22.56
2018-07-03T07:26:47.051Z,22.61
2018-07-03T07:29:17.261Z,22.66
2018-07-03T07:31:47.243Z,22.70
2018-07-03T07:34:17.541Z,22.75
2018-07-03T07:36:47.468Z,22.79
2018-07-03T07:39:17.681Z,22.81
2018-07-03T07:41:47.700Z,22.83
2018-07-03T07:44:18.063Z,22.86
2018-07-03T07:46:48.248Z,22.93
2018-07-03T07:49:18.368Z,22.99
2018-07-03T07:51:48.640Z,23.05
2018-07-03T07:54:18.760Z,23.09
2018-07-03T07:56:48.987Z,23.14
2018-07-03T07:59:19.153Z,23.17
2018-07-03T08:01:49.267Z,23.21
2018-07-03T08:04:19.615Z,23.27
2018-07-03T08:06:49.836Z,23.31
2018-07-03T08:09:20.444Z,23.37
2018-07-03T08:11:50.556Z,23.42
2018-07-03T08:14:20.626Z,23.46
2018-07-03T08:16:50.839Z,23.50
2018-07-03T08:19:20.845Z,23.53
2018-07-03T08:21:51.548Z,23.56
2018-07-03T08:24:21.581Z,23.59
2018-07-03T08:26:52.067Z,23.64
2018-07-03T08:29:22.065Z,23.69
2018-07-03T08:31:52.445Z,23.75
2018-07-03T08:34:22.682Z,23.76
2018-07-03T08:36:53.034Z,23.81
2018-07-03T08:39:23.288Z,23.86
2018-07-03T08:41:53.243Z,23.91
2018-07-03T08:44:23.425Z,23.94
2018-07-03T08:46:54.175Z,23.98
2018-07-03T08:49:24.295Z,24.02
2018-07-03T08:51:55.165Z,24.05
2018-07-03T08:54:25.591Z,24.10
2018-07-03T08:56:55.933Z,24.16
2018-07-03T08:59:26.067Z,24.23
2018-07-03T09:01:56.149Z,24.32
2018-07-03T09:04:26.578Z,24.38
2018-07-03T09:06:56.838Z,24.45
2018-07-03T09:09:27.016Z,24.53
2018-07-03T09:11:57.387Z,24.60
2018-07-03T09:14:27.617Z,24.69
2018-07-03T09:16:57.813Z,24.78
2018-07-03T09:19:28.126Z,24.86
2018-07-03T09:21:58.432Z,24.95
2018-07-03T09:24:28.640Z,25.02
2018-07-03T09:26:58.988Z,25.09
2018-07-03T09:29:29.238Z,25.14
2018-07-03T09:31:59.396Z,25.22
2018-07-03T09:34:29.411Z,25.28
2018-07-03T09:37:05.525Z,25.35
2018-07-03T09:39:35.460Z,25.38
2018-07-03T09:42:05.902Z,25.43
2018-07-03T09:44:35.989Z,25.52
2018-07-03T09:47:06.234Z,25.59
2018-07-03T09:49:36.472Z,25.68
2018-07-03T09:52:06.823Z,25.77
2018-07-03T09:54:36.984Z,25.84
2018-07-03T09:57:07.398Z,25.90
2018-07-03T09:59:37.834Z,25.95
2018-07-03T10:02:08.519Z,26.03
2018-07-03T10:04:39.094Z,26.10
2018-07-03T10:07:09.378Z,26.18
2018-07-03T10:09:39.468Z,26.28
2018-07-03T10:12:09.789Z,26.34
2018-07-03T10:14:40.277Z,26.38
2018-07-03T10:17:12.413Z,26.43
2018-07-03T10:19:44.051Z,26.47
2018-07-03T10:22:14.409Z,26.53
2018-07-03T10:24:46.117Z,26.60
2018-07-03T10:27:16.246Z,26.68
2018-07-03T10:29:46.235Z,26.76
2018-07-03T10:32:17.054Z,26.85
2018-07-03T10:34:52.213Z,26.93
2018-07-03T10:37:22.274Z,27.01
2018-07-03T10:39:52.729Z,27.05
2018-07-03T10:42:22.987Z,27.07
2018-07-03T10:44:53.100Z,27.09
2018-07-03T10:47:23.408Z,27.16
2018-07-03T10:49:53.626Z,27.24
2018-07-03T10:52:23.757Z,27.29
2018-07-03T10:54:53.907Z,27.38
2018-07-03T10:57:29.294Z,27.47
2018-07-03T10:59:59.840Z,27.51
2018-07-03T11:02:30.013Z,27.57
2018-07-03T11:05:00.791Z,27.64
2018-07-03T11:07:31.171Z,27.71
2018-07-03T11:10:01.506Z,27.80
2018-07-03T11:12:31.675Z,27.86
2018-07-03T11:15:01.873Z,27.91
2018-07-03T11:17:32.042Z,28.02
2018-07-03T11:20:02.329Z,28.13
2018-07-03T11:22:32.452Z,28.24
2018-07-03T11:25:02.924Z,28.34
2018-07-03T11:27:33.361Z,28.44
2018-07-03T11:30:03.879Z,28.50
2018-07-03T11:32:34.151Z,28.57
2018-07-03T11:35:04.158Z,28.64
2018-07-03T11:37:34.293Z,28.74
2018-07-03T11:40:04.479Z,28.80
2018-07-03T11:42:34.763Z,28.84
2018-07-03T11:45:05.851Z,28.85
2018-07-03T11:47:35.847Z,28.84
2018-07-03T11:50:06.598Z,28.77
2018-07-03T11:52:37.060Z,28.70
2018-07-03T11:55:07.449Z,28.64
2018-07-03T11:57:37.501Z,28.63
2018-07-03T12:03:03.376Z,28.59
2018-07-03T12:05:33.576Z,28.60
2018-07-03T12:08:03.580Z,28.59
2018-07-03T12:10:33.918Z,28.61
2018-07-03T12:13:09.645Z,28.61
2018-07-03T12:15:39.611Z,28.68
2018-07-03T12:18:14.644Z,28.77
2018-07-03T12:20:44.806Z,28.85
2018-07-03T12:23:15.026Z,28.93
2018-07-03T12:25:50.337Z,29.01
2018-07-03T12:28:20.520Z,29.02
2018-07-03T12:30:51.516Z,29.01
2018-07-03T12:33:21.922Z,29.04
2018-07-03T12:35:52.079Z,29.12
2018-07-03T12:38:22.332Z,29.21
2018-07-03T12:40:52.698Z,29.25
2018-07-03T12:43:22.727Z,29.29
2018-07-03T12:45:53.242Z,29.30
2018-07-03T12:48:23.651Z,29.33
2018-07-03T12:50:54.452Z,29.38
2018-07-03T12:53:24.357Z,29.44
2018-07-03T12:55:54.716Z,29.52
2018-07-03T13:01:00.275Z,29.61
2018-07-03T13:03:30.335Z,29.60
2018-07-03T13:06:00.873Z,29.58
2018-07-03T13:08:31.058Z,29.55
2018-07-03T13:11:01.414Z,29.53
2018-07-03T13:13:31.808Z,29.52
2018-07-03T13:16:02.249Z,29.51
2018-07-03T13:18:32.323Z,29.54
2018-07-03T13:21:02.525Z,29.57
2018-07-03T13:23:33.059Z,29.61
2018-07-03T13:26:03.341Z,29.65
2018-07-03T13:28:33.757Z,29.67
2018-07-03T13:31:04.037Z,29.70
2018-07-03T13:33:34.211Z,29.70
2018-07-03T13:36:04.420Z,29.72
2018-07-03T13:38:35.589Z,29.77
2018-07-03T13:41:05.924Z,29.82
2018-07-03T13:43:36.119Z,29.87
2018-07-03T13:46:06.653Z,29.91
2018-07-03T13:48:36.757Z,29.96
2018-07-03T13:51:06.966Z,30.02
2018-07-03T13:53:37.189Z,30.10
2018-07-03T13:56:07.327Z,30.22
2018-07-03T13:58:37.451Z,30.33
2018-07-03T14:01:07.650Z,30.43
2018-07-03T14:03:37.996Z,30.50
2018-07-03T14:06:08.248Z,30.54
2018-07-03T14:08:38.522Z,30.55
2018-07-03T14:11:09.047Z,30.57
2018-07-03T14:13:39.858Z,30.57
2018-07-03T14:16:10.005Z,30.57
2018-07-03T14:18:40.237Z,30.59
2018-07-03T14:21:10.510Z,30.62
2018-07-03T14:23:41.476Z,30.62
2018-07-03T14:26:11.605Z,30.66
2018-07-03T14:28:41.936Z,30.71
2018-07-03T14:31:12.267Z,30.77
2018-07-03T14:33:42.495Z,30.80
2018-07-03T14:36:12.718Z,30.84
2018-07-03T14:38:42.805Z,30.87
2018-07-03T14:41:13.503Z,30.89
2018-07-03T14:43:43.430Z,30.90
2018-07-03T14:46:14.051Z,30.92
2018-07-03T14:48:44.122Z,30.92
2018-07-03T14:51:14.317Z,30.95
2018-07-03T14:53:44.446Z,30.99
2018-07-03T14:56:14.608Z,31.04
2018-07-03T14:58:44.713Z,31.06
2018-07-03T15:01:15.020Z,31.08
2018-07-03T15:03:44.871Z,31.09
2018-07-03T15:06:14.994Z,31.12
2018-07-03T15:08:45.123Z,31.13
2018-07-03T15:11:15.337Z,31.18
2018-07-03T15:13:45.298Z,31.23
2018-07-03T15:16:15.501Z,31.27
2018-07-03T15:18:50.468Z,31.29
2018-07-03T15:21:20.551Z,31.23
2018-07-03T15:23:50.644Z,31.14
2018-07-03T15:26:20.342Z,31.07
2018-07-03T15:28:50.410Z,30.93
2018-07-03T15:31:20.501Z,30.86
2018-07-03T15:33:50.754Z,30.81
2018-07-03T15:36:21.117Z,30.79
2018-07-03T15:38:51.390Z,30.75
2018-07-03T15:41:22.416Z,30.74
2018-07-03T15:44:03.944Z,30.77
2018-07-03T15:46:33.933Z,30.81
2018-07-03T15:49:04.559Z,30.86
2018-07-03T15:51:34.882Z,30.91
2018-07-03T15:54:05.379Z,30.98
2018-07-03T15:56:35.521Z,31.04
2018-07-03T15:59:06.716Z,31.07
2018-07-03T16:01:37.195Z,31.10
2018-07-03T16:05:22.934Z,31.09
2018-07-03T16:08:15.418Z,31.05
2018-07-03T16:10:45.472Z,31.07
2018-07-03T16:13:16.035Z,31.10
2018-07-03T16:15:46.199Z,31.13
2018-07-03T16:18:16.832Z,31.16
2018-07-03T16:20:52.303Z,31.19
2018-07-03T16:23:22.213Z,31.18
2018-07-03T16:25:53.333Z,31.15
2018-07-03T16:28:23.491Z,31.13
2018-07-03T16:30:53.671Z,31.14
2018-07-03T16:33:23.928Z,31.15
2018-07-03T16:35:55.014Z,31.14
2018-07-03T16:38:25.087Z,31.08
2018-07-03T16:40:55.200Z,31.02
2018-07-03T16:43:25.524Z,30.99
2018-07-03T16:45:55.625Z,30.94
2018-07-03T16:48:26.273Z,30.92
2018-07-03T16:50:56.111Z,30.88
2018-07-03T16:53:26.262Z,30.86
2018-07-03T16:55:56.713Z,30.79
2018-07-03T16:58:26.939Z,30.72
2018-07-03T17:00:57.517Z,30.66
2018-07-03T17:03:27.627Z,30.61
2018-07-03T17:05:57.789Z,30.59
2018-07-03T17:08:27.937Z,30.61
2018-07-03T17:10:58.143Z,30.58
2018-07-03T17:13:28.413Z,30.54
2018-07-03T17:15:58.508Z,30.46
2018-07-03T17:18:29.464Z,30.40
2018-07-03T17:20:59.592Z,30.37
2018-07-03T17:23:29.986Z,30.34
2018-07-03T17:26:00.146Z,30.31
2018-07-03T17:28:30.955Z,30.30
2018-07-03T17:31:00.921Z,30.25
2018-07-03T17:33:31.243Z,30.24
2018-07-03T17:36:01.372Z,30.21
2018-07-03T17:38:32.447Z,30.19
2018-07-03T17:41:13.539Z,30.15
2018-07-03T17:44:08.028Z,30.11
2018-07-03T17:46:37.995Z,30.05
2018-07-03T17:49:08.543Z,30.00
2018-07-03T17:51:38.739Z,29.94
2018-07-03T17:54:09.022Z,29.89
2018-07-03T17:56:39.142Z,29.84
2018-07-03T17:59:09.312Z,29.80
2018-07-03T18:01:39.596Z,29.75
2018-07-03T18:04:10.540Z,29.72
2018-07-03T18:06:40.883Z,29.74
2018-07-03T18:09:12.409Z,29.75
2018-07-03T18:11:42.662Z,29.70
2018-07-03T18:14:13.560Z,29.64
2018-07-03T18:16:44.021Z,29.58
2018-07-03T18:19:19.462Z,29.52
2018-07-03T18:21:49.880Z,29.45
2018-07-03T18:24:20.454Z,29.39
2018-07-03T18:26:51.127Z,29.32
2018-07-03T18:29:22.013Z,29.26
2018-07-03T18:31:52.740Z,29.19
2018-07-03T18:34:22.901Z,29.12
2018-07-03T18:36:53.780Z,29.04
2018-07-03T18:39:30.444Z,28.99
2018-07-03T18:42:00.891Z,28.91
2018-07-03T18:44:31.254Z,28.86
2018-07-03T18:47:02.172Z,28.79
2018-07-03T18:49:32.521Z,28.74
2018-07-03T18:52:02.842Z,28.68
2018-07-03T18:54:33.009Z,28.64
2018-07-03T18:57:03.079Z,28.58
2018-07-03T18:59:33.366Z,28.55
2018-07-03T19:02:03.714Z,28.51
2018-07-03T19:04:33.999Z,28.47
2018-07-03T19:07:05.303Z,28.43
2018-07-03T19:09:35.749Z,28.37
2018-07-03T19:12:05.844Z,28.33
2018-07-03T19:14:35.778Z,28.28
2018-07-03T19:17:05.991Z,28.21
2018-07-03T19:19:35.960Z,28.14
2018-07-03T19:22:06.289Z,28.08
2018-07-03T19:24:36.382Z,27.98
2018-07-03T19:27:06.513Z,27.91
2018-07-03T19:29:36.711Z,27.85
2018-07-03T19:32:07.681Z,27.78
2018-07-03T19:34:38.258Z,27.71
2018-07-03T19:37:08.564Z,27.65
2018-07-03T19:39:38.782Z,27.57
2018-07-03T19:42:09.093Z,27.52
2018-07-03T19:44:45.755Z,27.46
2018-07-03T19:47:16.219Z,27.41
2018-07-03T19:49:46.441Z,27.34
2018-07-03T19:52:16.684Z,27.31
2018-07-03T19:54:51.815Z,27.25
2018-07-03T19:57:21.946Z,27.21
2018-07-03T19:59:52.259Z,27.16
2018-07-03T20:02:22.457Z,27.13
2018-07-03T20:04:52.813Z,27.06
2018-07-03T20:07:23.410Z,27.02
2018-07-03T20:09:53.687Z,26.95
2018-07-03T20:12:27.104Z,26.90
2018-07-03T20:14:57.473Z,26.84
2018-07-03T20:17:27.918Z,26.76
2018-07-03T20:19:58.786Z,26.70
2018-07-03T20:22:29.110Z,26.65
2018-07-03T20:24:59.496Z,26.60
2018-07-03T20:27:30.204Z,26.53
2018-07-03T20:30:00.389Z,26.47
2018-07-03T20:32:30.601Z,26.41
2018-07-03T20:35:01.167Z,26.33
2018-07-03T20:37:36.449Z,26.27
2018-07-03T20:40:06.203Z,26.20
2018-07-03T20:42:36.160Z,26.15
2018-07-03T20:45:06.708Z,26.10
2018-07-03T20:47:36.856Z,26.06
2018-07-03T20:50:06.952Z,26.01
2018-07-03T20:52:37.549Z,25.98
2018-07-03T20:55:07.800Z,25.94
2018-07-03T20:57:38.070Z,25.87
2018-07-03T21:00:08.052Z,25.83
2018-07-03T21:02:38.083Z,25.80
2018-07-03T21:05:08.073Z,25.74
2018-07-03T21:07:40.624Z,25.73
2018-07-03T21:10:11.047Z,25.70
2018-07-03T21:12:41.360Z,25.66
2018-07-03T21:15:11.543Z,25.64
2018-07-03T21:17:42.031Z,25.61
2018-07-03T21:20:12.134Z,25.59
2018-07-03T21:22:42.879Z,25.56
2018-07-03T21:25:13.422Z,25.55
2018-07-03T21:27:44.175Z,25.51
2018-07-03T21:30:18.606Z,25.47
2018-07-03T21:32:49.114Z,25.43
2018-07-03T21:35:19.578Z,25.38
2018-07-03T21:37:49.907Z,25.35
2018-07-03T21:40:20.330Z,25.32
2018-07-03T21:42:50.343Z,25.24
2018-07-03T21:45:20.845Z,25.17
2018-07-03T21:47:51.033Z,25.10
2018-07-03T21:50:21.283Z,25.03
2018-07-03T21:52:51.746Z,24.98
2018-07-03T21:55:21.975Z,24.93
2018-07-03T21:57:52.318Z,24.87
2018-07-03T22:00:31.312Z,24.84
2018-07-03T22:03:01.694Z,24.80
2018-07-03T22:05:31.748Z,24.78
2018-07-03T22:08:02.506Z,24.77
2018-07-03T22:10:32.897Z,24.74
2018-07-03T22:13:03.299Z,24.72
2018-07-03T22:15:33.633Z,24.69
2018-07-03T22:18:03.598Z,24.66
2018-07-03T22:20:34.210Z,24.62
2018-07-03T22:36:02.888Z,24.14
2018-07-03T22:38:50.290Z,24.08
2018-07-03T22:41:30.209Z,24.04
2018-07-03T22:44:06.299Z,24.03
2018-07-03T22:46:53.975Z,24.01
2018-07-03T22:49:32.494Z,23.99
2018-07-03T22:52:09.730Z,23.97
2018-07-03T22:54:50.746Z,23.96
2018-07-03T22:57:24.793Z,23.94
2018-07-03T23:02:57.954Z,23.87
2018-07-03T23:05:42.291Z,23.84
2018-07-03T23:08:18.254Z,23.81
2018-07-03T23:10:56.944Z,23.79
2018-07-03T23:13:46.248Z,23.78
2018-07-03T23:16:23.011Z,23.76
2018-07-03T23:19:17.757Z,23.73
2018-07-03T23:22:05.315Z,23.66
2018-07-03T23:24:40.891Z,23.58
2018-07-03T23:27:23.901Z,23.54
2018-07-03T23:30:01.627Z,23.48
2018-07-03T23:42:34.988Z,23.43
2018-07-03T23:45:10.680Z,23.07
2018-07-03T23:47:53.693Z,23.07
2018-07-03T23:50:41.374Z,23.08
2018-07-03T23:53:29.825Z,23.09
2018-07-03T23:56:17.841Z,23.08
2018-07-03T23:59:07.638Z,23.07
